Time;durP1;ratioP1;P1;durP2;ratioP2;P2;SDS_P1;SDS_P2;PMS_P1;PMS_P2;Temp;Humidity;BMP_temperature;BMP_pressure;BME280_temperature;BME280_humidity;BME280_pressure;Samples;Min_cycle;Max_cycle;Signal;HPM_P1;HPM_P2
2021/08/28 00:01:26;;;;;;;14.18;4.38;;;15.60;88.60;;;;;;5018460;28;20053;-72
2021/08/28 00:03:51;;;;;;;14.90;4.05;;;15.60;88.80;;;;;;5024205;28;20041;-74
2021/08/28 00:06:17;;;;;;;13.15;4.63;;;15.60;88.90;;;;;;5025443;28;20030;-73
2021/08/28 00:08:43;;;;;;;14.10;5.00;;;15.60;88.90;;;;;;5026346;28;20034;-74
2021/08/28 00:11:09;;;;;;;14.95;4.47;;;15.60;88.90;;;;;;5025793;28;20423;-75
2021/08/28 00:13:34;;;;;;;14.75;4.55;;;15.60;89.00;;;;;;5025996;28;20465;-73
2021/08/28 00:16:00;;;;;;;14.13;4.28;;;15.60;89.20;;;;;;5024275;28;20075;-74
2021/08/28 00:18:26;;;;;;;12.15;3.67;;;15.60;89.20;;;;;;5019481;28;20076;-72
2021/08/28 00:20:52;;;;;;;12.35;4.32;;;15.60;89.20;;;;;;5015326;28;20069;-73
2021/08/28 00:23:17;;;;;;;12.85;4.65;;;15.60;89.30;;;;;;5025465;28;20087;-76
2021/08/28 00:25:43;;;;;;;16.25;3.92;;;15.60;89.40;;;;;;5023043;28;20485;-73
2021/08/28 00:28:09;;;;;;;14.43;4.38;;;15.60;89.40;;;;;;5025927;28;20037;-73
2021/08/28 00:30:34;;;;;;;11.77;4.95;;;15.60;89.40;;;;;;5021582;28;20044;-75
2021/08/28 00:33:11;;;;;;;14.02;4.70;;;15.60;89.30;;;;;;5017337;28;20056;-73
2021/08/28 00:35:37;;;;;;;12.77;4.45;;;15.60;89.40;;;;;;5011064;28;20358;-72
2021/08/28 00:38:04;;;;;;;15.02;4.85;;;15.60;89.40;;;;;;5024071;28;20515;-72
2021/08/28 00:40:30;;;;;;;11.77;4.35;;;15.60;89.50;;;;;;5012233;28;20035;-72
2021/08/28 00:42:55;;;;;;;14.98;4.72;;;15.60;89.60;;;;;;5010556;28;20038;-75
2021/08/28 00:45:22;;;;;;;19.08;4.70;;;15.50;89.60;;;;;;5020855;28;20034;-80
2021/08/28 00:48:00;;;;;;;15.35;4.50;;;15.50;89.60;;;;;;5015315;28;20467;-80
2021/08/28 00:50:26;;;;;;;16.90;4.60;;;15.50;89.70;;;;;;5013481;28;20034;-73
2021/08/28 00:52:54;;;;;;;13.32;4.60;;;15.50;89.70;;;;;;5005795;28;20695;-71
2021/08/28 00:55:24;;;;;;;13.55;4.82;;;15.50;89.70;;;;;;5018509;28;20056;-77
2021/08/28 00:57:50;;;;;;;11.75;5.72;;;15.40;89.90;;;;;;5033654;28;20051;-76
2021/08/28 01:00:16;;;;;;;13.80;5.10;;;15.40;90.00;;;;;;5023364;28;20449;-73
2021/08/28 01:02:43;;;;;;;15.73;5.35;;;15.40;90.20;;;;;;5024532;28;20109;-73
2021/08/28 01:05:21;;;;;;;15.00;5.35;;;15.40;90.30;;;;;;5026420;28;20029;-73
2021/08/28 01:08:10;;;;;;;15.70;6.10;;;15.50;90.30;;;;;;5019035;28;20030;-72
2021/08/28 01:10:41;;;;;;;19.80;5.90;;;15.50;90.30;;;;;;5023471;28;20481;-71
2021/08/28 01:13:11;;;;;;;15.43;5.70;;;15.50;90.40;;;;;;5028105;28;21109;-74
2021/08/28 01:15:39;;;;;;;15.27;5.53;;;15.50;90.40;;;;;;5030033;28;20036;-73
2021/08/28 01:18:09;;;;;;;17.65;5.85;;;15.50;90.50;;;;;;5027148;28;20534;-73
2021/08/28 01:20:53;;;;;;;16.33;5.65;;;15.50;90.50;;;;;;5030417;28;20504;-80
2021/08/28 01:23:20;;;;;;;14.93;5.72;;;15.40;90.40;;;;;;5035905;28;20060;-73
2021/08/28 01:25:46;;;;;;;17.88;5.45;;;15.40;90.40;;;;;;5029953;28;20044;-72
2021/08/28 01:28:12;;;;;;;14.00;5.18;;;15.40;90.20;;;;;;5028179;28;20464;-73
2021/08/28 01:30:43;;;;;;;15.90;5.47;;;15.40;90.20;;;;;;5028451;28;20362;-72
2021/08/28 01:33:12;;;;;;;15.60;5.55;;;15.40;90.10;;;;;;5025770;28;20046;-73
2021/08/28 01:35:43;;;;;;;13.80;4.82;;;15.40;89.90;;;;;;5022489;28;20080;-73
2021/08/28 01:38:11;;;;;;;12.55;5.05;;;15.40;89.80;;;;;;5028742;28;20072;-76
2021/08/28 01:40:38;;;;;;;16.92;5.47;;;15.40;89.70;;;;;;5022256;28;20038;-72
2021/08/28 01:43:05;;;;;;;15.32;5.80;;;15.50;89.70;;;;;;5026544;28;20084;-73
2021/08/28 01:45:32;;;;;;;13.90;5.18;;;15.50;89.60;;;;;;5027713;28;20394;-76
2021/08/28 01:47:58;;;;;;;15.90;5.60;;;15.50;89.60;;;;;;5026536;28;20120;-77
2021/08/28 01:50:25;;;;;;;13.63;4.95;;;15.50;89.60;;;;;;5024492;28;20037;-83
2021/08/28 01:52:51;;;;;;;12.85;5.80;;;15.60;89.50;;;;;;5034486;28;20034;-72
2021/08/28 01:55:17;;;;;;;13.50;4.50;;;15.60;89.40;;;;;;5034003;28;20401;-72
2021/08/28 01:57:43;;;;;;;16.20;5.40;;;15.60;89.30;;;;;;5035600;28;20385;-73
2021/08/28 02:00:09;;;;;;;17.58;5.70;;;15.60;89.30;;;;;;5029561;28;20091;-74
2021/08/28 02:02:35;;;;;;;13.73;5.47;;;15.60;89.20;;;;;;5025971;28;20504;-74
2021/08/28 02:05:02;;;;;;;14.68;4.88;;;15.60;89.30;;;;;;5024922;28;20116;-73
2021/08/28 02:07:41;;;;;;;14.88;5.60;;;15.60;89.40;;;;;;5018200;28;20033;-74
2021/08/28 02:10:06;;;;;;;15.75;5.15;;;15.70;89.40;;;;;;5025778;28;20034;-80
2021/08/28 02:12:47;;;;;;;13.65;5.10;;;15.70;89.30;;;;;;5024751;28;20052;-73
2021/08/28 02:15:26;;;;;;;16.02;5.60;;;15.70;89.30;;;;;;5023958;28;20136;-73
2021/08/28 02:18:04;;;;;;;17.23;5.68;;;15.80;89.20;;;;;;5024362;28;20048;-74
2021/08/28 02:20:35;;;;;;;17.98;5.50;;;15.80;89.10;;;;;;5004121;28;20030;-73
2021/08/28 02:23:09;;;;;;;14.75;5.07;;;15.80;89.20;;;;;;5026565;28;20077;-75
2021/08/28 02:25:57;;;;;;;17.27;5.88;;;15.90;89.10;;;;;;5026454;28;20542;-73
2021/08/28 02:28:32;;;;;;;11.77;5.07;;;15.90;89.10;;;;;;5025175;28;20034;-75
2021/08/28 02:31:00;;;;;;;14.70;5.10;;;15.80;89.10;;;;;;5026810;28;20432;-72
2021/08/28 02:33:26;;;;;;;22.08;5.72;;;15.90;89.10;;;;;;5015327;28;20033;-72
2021/08/28 02:35:52;;;;;;;11.80;5.30;;;15.90;89.10;;;;;;5022502;28;20067;-76
2021/08/28 02:38:18;;;;;;;17.63;6.47;;;15.90;89.10;;;;;;5024659;28;20033;-72
2021/08/28 02:40:47;;;;;;;13.93;5.80;;;15.80;89.00;;;;;;5026069;28;20084;-72
2021/08/28 02:43:15;;;;;;;14.63;5.55;;;15.90;89.10;;;;;;5027540;28;20390;-74
2021/08/28 02:45:42;;;;;;;13.75;5.00;;;15.80;89.00;;;;;;5025745;28;20049;-72
2021/08/28 02:48:08;;;;;;;15.25;5.40;;;15.70;89.10;;;;;;5026588;28;20036;-77
2021/08/28 02:50:37;;;;;;;17.20;5.70;;;15.70;89.20;;;;;;5025589;28;20030;-76
2021/08/28 02:53:03;;;;;;;12.25;5.28;;;15.70;89.00;;;;;;5026622;28;20049;-72
2021/08/28 02:55:31;;;;;;;11.38;5.32;;;15.70;89.10;;;;;;5028672;28;20026;-76
2021/08/28 02:57:59;;;;;;;12.52;5.50;;;15.70;89.20;;;;;;5028667;28;20041;-73
2021/08/28 03:00:25;;;;;;;12.43;5.78;;;15.70;89.30;;;;;;5027730;28;20037;-72
2021/08/28 03:02:51;;;;;;;12.45;5.97;;;15.70;89.40;;;;;;5027468;28;20042;-72
2021/08/28 03:05:17;;;;;;;15.13;5.68;;;15.70;89.40;;;;;;5027563;28;20120;-72
2021/08/28 03:07:45;;;;;;;14.13;5.30;;;15.70;89.40;;;;;;5022296;28;20030;-75
2021/08/28 03:10:12;;;;;;;15.50;5.70;;;15.60;89.50;;;;;;5027850;28;20064;-75
2021/08/28 03:12:38;;;;;;;13.73;5.13;;;15.60;89.50;;;;;;5025355;28;20128;-73
2021/08/28 03:15:08;;;;;;;13.25;6.13;;;15.70;89.60;;;;;;5027394;28;20117;-77
2021/08/28 03:17:36;;;;;;;12.15;6.25;;;15.60;89.70;;;;;;5027368;28;20037;-73
2021/08/28 03:20:04;;;;;;;14.65;6.30;;;15.60;89.90;;;;;;5026473;28;20039;-74
2021/08/28 03:22:32;;;;;;;13.75;5.65;;;15.60;89.90;;;;;;5031897;28;20484;-81
2021/08/28 03:24:58;;;;;;;14.55;6.47;;;15.60;90.00;;;;;;5025566;28;20041;-73
2021/08/28 03:27:26;;;;;;;14.90;6.20;;;15.60;90.00;;;;;;5027066;28;20108;-73
2021/08/28 03:29:53;;;;;;;13.27;6.30;;;15.60;89.90;;;;;;5025536;28;20039;-72
2021/08/28 03:32:20;;;;;;;15.70;6.85;;;15.60;90.00;;;;;;5025728;28;20037;-71
2021/08/28 03:34:46;;;;;;;11.70;6.22;;;15.60;89.90;;;;;;5025673;28;20053;-74
2021/08/28 03:37:13;;;;;;;11.07;6.15;;;15.60;89.90;;;;;;5026760;28;20082;-73
2021/08/28 03:39:40;;;;;;;11.27;5.00;;;15.60;89.90;;;;;;5026553;28;20049;-76
2021/08/28 03:42:07;;;;;;;11.90;5.72;;;15.60;89.90;;;;;;5025348;28;20473;-72
2021/08/28 03:44:38;;;;;;;9.73;5.38;;;15.60;89.80;;;;;;5027583;28;20033;-72
2021/08/28 03:47:04;;;;;;;15.20;6.55;;;15.60;89.70;;;;;;5023998;28;20036;-71
2021/08/28 03:49:30;;;;;;;10.27;5.47;;;15.50;89.60;;;;;;5026209;28;20033;-80
2021/08/28 03:51:55;;;;;;;11.15;5.95;;;15.50;89.60;;;;;;5025215;28;20049;-74
2021/08/28 03:54:21;;;;;;;11.00;5.57;;;15.50;89.50;;;;;;5031148;28;20042;-74
2021/08/28 03:56:46;;;;;;;10.52;4.85;;;15.50;89.40;;;;;;5033774;28;20048;-76
2021/08/28 03:59:12;;;;;;;11.27;4.90;;;15.50;89.30;;;;;;5031711;28;20390;-73
2021/08/28 04:01:38;;;;;;;10.52;5.32;;;15.50;89.20;;;;;;5026195;28;20076;-72
2021/08/28 04:04:04;;;;;;;12.50;5.10;;;15.50;89.10;;;;;;5026874;28;20548;-73
2021/08/28 04:06:29;;;;;;;9.27;5.28;;;15.50;89.00;;;;;;5024478;28;20083;-82
2021/08/28 04:08:55;;;;;;;9.20;5.38;;;15.50;89.00;;;;;;5019595;28;20038;-72
2021/08/28 04:11:21;;;;;;;10.80;5.32;;;15.50;88.70;;;;;;5023068;28;20505;-74
2021/08/28 04:13:46;;;;;;;11.32;4.97;;;15.50;88.70;;;;;;5019812;28;20034;-76
2021/08/28 04:16:12;;;;;;;10.20;5.20;;;15.50;88.60;;;;;;4999341;28;20038;-71
2021/08/28 04:18:38;;;;;;;9.85;5.65;;;15.50;88.60;;;;;;5004984;28;20458;-72
2021/08/28 04:21:03;;;;;;;13.10;5.80;;;15.50;88.70;;;;;;5003174;28;20579;-73
2021/08/28 04:23:29;;;;;;;15.25;5.90;;;15.50;88.80;;;;;;5005017;28;20172;-82
2021/08/28 04:25:55;;;;;;;14.18;5.93;;;15.50;88.90;;;;;;5007508;28;20037;-77
2021/08/28 04:28:21;;;;;;;11.10;6.07;;;15.50;89.10;;;;;;5016321;28;20045;-72
2021/08/28 04:30:46;;;;;;;12.68;6.07;;;15.50;89.30;;;;;;5019642;28;20037;-73
2021/08/28 04:33:14;;;;;;;12.02;6.15;;;15.50;89.30;;;;;;5015237;28;20048;-72
2021/08/28 04:35:40;;;;;;;12.00;5.82;;;15.40;89.10;;;;;;5019530;28;20379;-72
2021/08/28 04:38:06;;;;;;;15.00;6.60;;;15.30;89.20;;;;;;5023074;28;20048;-77
2021/08/28 04:40:31;;;;;;;11.18;5.82;;;15.30;89.20;;;;;;5026316;28;20038;-73
2021/08/28 04:42:57;;;;;;;12.18;6.78;;;15.30;89.10;;;;;;5025615;28;20429;-75
2021/08/28 04:45:23;;;;;;;11.55;5.65;;;15.30;89.20;;;;;;5028300;28;20044;-71
2021/08/28 04:47:49;;;;;;;11.65;6.07;;;15.30;89.20;;;;;;5030624;28;20049;-71
2021/08/28 04:50:15;;;;;;;12.57;5.75;;;15.40;89.20;;;;;;5021241;28;20084;-73
2021/08/28 04:52:40;;;;;;;13.32;5.65;;;15.40;89.30;;;;;;5029527;28;20064;-73
2021/08/28 04:55:06;;;;;;;11.65;5.57;;;15.30;89.30;;;;;;5031373;28;20045;-76
2021/08/28 04:57:32;;;;;;;10.27;5.03;;;15.40;89.30;;;;;;5028989;28;20115;-75
2021/08/28 04:59:57;;;;;;;11.50;5.63;;;15.40;89.20;;;;;;5036491;28;20491;-72
2021/08/28 05:02:23;;;;;;;10.45;6.20;;;15.40;89.30;;;;;;5026508;28;20136;-71
2021/08/28 05:04:49;;;;;;;8.68;4.97;;;15.50;89.30;;;;;;5027822;28;20068;-72
2021/08/28 05:07:14;;;;;;;13.25;5.47;;;15.50;89.40;;;;;;5030674;28;20041;-72
2021/08/28 05:09:40;;;;;;;10.70;5.63;;;15.50;89.40;;;;;;5018034;28;20029;-73
2021/08/28 05:12:06;;;;;;;11.65;5.40;;;15.50;89.40;;;;;;5028696;28;20694;-73
2021/08/28 05:14:37;;;;;;;10.90;5.43;;;15.50;89.40;;;;;;5027379;28;20119;-72
2021/08/28 05:17:03;;;;;;;9.70;5.22;;;15.60;89.30;;;;;;5030219;28;20477;-73
2021/08/28 05:19:29;;;;;;;14.32;6.03;;;15.60;89.20;;;;;;5028533;28;20358;-74
2021/08/28 05:21:55;;;;;;;11.48;5.88;;;15.60;89.10;;;;;;5029860;28;20045;-72
2021/08/28 05:24:21;;;;;;;10.85;5.70;;;15.60;89.20;;;;;;5027348;28;20124;-73
2021/08/28 05:26:46;;;;;;;13.57;6.03;;;15.60;89.10;;;;;;5028313;28;20026;-72
2021/08/28 05:29:12;;;;;;;11.55;5.88;;;15.60;89.20;;;;;;5029553;28;20030;-71
2021/08/28 05:31:37;;;;;;;11.95;5.55;;;15.60;89.20;;;;;;5027482;28;21188;-74
2021/08/28 05:34:03;;;;;;;11.05;5.55;;;15.60;89.10;;;;;;5024188;28;20037;-72
2021/08/28 05:36:29;;;;;;;10.27;5.65;;;15.70;89.10;;;;;;5025542;28;20026;-72
2021/08/28 05:38:55;;;;;;;14.27;6.53;;;15.70;89.20;;;;;;5018765;28;20535;-71
2021/08/28 05:41:22;;;;;;;10.63;6.05;;;15.60;89.20;;;;;;5021738;28;20045;-72
2021/08/28 05:43:47;;;;;;;11.75;6.03;;;15.70;89.20;;;;;;5023431;28;20037;-70
2021/08/28 05:46:13;;;;;;;11.10;5.72;;;15.70;89.20;;;;;;5018283;28;20033;-71
2021/08/28 05:48:39;;;;;;;12.10;6.03;;;15.70;89.30;;;;;;5024201;28;20088;-71
2021/08/28 05:51:04;;;;;;;12.43;5.80;;;15.70;89.20;;;;;;5021160;28;20038;-71
2021/08/28 05:53:30;;;;;;;12.75;5.72;;;15.70;89.20;;;;;;5022092;28;20485;-70
2021/08/28 05:55:56;;;;;;;12.23;6.63;;;15.80;89.10;;;;;;5020202;28;20230;-72
2021/08/28 05:58:21;;;;;;;11.70;5.32;;;15.80;89.10;;;;;;5028028;28;20032;-70
2021/08/28 06:00:47;;;;;;;13.63;6.43;;;16.00;88.90;;;;;;5023712;28;20049;-71
2021/08/28 06:03:13;;;;;;;11.95;5.80;;;16.00;88.60;;;;;;5027115;28;20038;-71
2021/08/28 06:05:38;;;;;;;11.10;5.68;;;16.10;88.70;;;;;;5023465;28;20068;-71
2021/08/28 06:08:04;;;;;;;8.75;5.28;;;16.10;88.50;;;;;;5024156;28;20495;-71
2021/08/28 06:10:30;;;;;;;9.52;5.28;;;16.10;88.30;;;;;;5024142;28;20022;-73
2021/08/28 06:12:55;;;;;;;15.07;6.75;;;16.20;88.30;;;;;;5024912;28;20541;-76
2021/08/28 06:15:21;;;;;;;12.98;6.65;;;16.20;88.00;;;;;;5021101;28;20178;-70
2021/08/28 06:17:47;;;;;;;10.82;5.68;;;16.20;88.20;;;;;;5020022;28;20542;-70
2021/08/28 06:20:13;;;;;;;10.75;5.78;;;16.20;88.20;;;;;;5027089;28;20029;-70
2021/08/28 06:22:38;;;;;;;11.65;6.25;;;16.30;88.30;;;;;;5025793;28;20116;-70
2021/08/28 06:25:05;;;;;;;14.10;6.95;;;16.30;88.20;;;;;;5021776;28;20128;-75
2021/08/28 06:27:30;;;;;;;13.00;6.68;;;16.40;88.10;;;;;;5024299;28;20465;-70
2021/08/28 06:29:56;;;;;;;13.35;6.18;;;16.40;88.10;;;;;;5018062;28;20056;-70
2021/08/28 06:32:22;;;;;;;14.70;6.70;;;16.50;88.20;;;;;;5028971;28;20042;-70
2021/08/28 06:34:47;;;;;;;16.88;6.90;;;16.50;88.10;;;;;;5015476;28;20532;-71
2021/08/28 06:37:13;;;;;;;12.15;6.13;;;16.50;88.20;;;;;;5018413;28;20380;-72
2021/08/28 06:39:39;;;;;;;13.18;7.00;;;16.60;88.30;;;;;;5020711;28;20501;-71
2021/08/28 06:42:04;;;;;;;13.80;7.82;;;16.60;88.30;;;;;;5016935;28;20050;-72
2021/08/28 06:44:30;;;;;;;14.13;7.18;;;16.60;88.50;;;;;;5021331;28;20503;-71
2021/08/28 06:46:56;;;;;;;10.55;6.43;;;16.60;88.50;;;;;;5024073;28;20033;-72
2021/08/28 06:49:21;;;;;;;13.55;7.55;;;16.60;88.60;;;;;;5007550;28;20049;-71
2021/08/28 06:51:47;;;;;;;14.65;7.80;;;16.70;88.30;;;;;;4998327;28;20127;-72
2021/08/28 06:54:13;;;;;;;17.77;7.57;;;16.80;88.20;;;;;;4993335;28;20038;-72
2021/08/28 06:56:38;;;;;;;16.75;7.82;;;16.90;88.10;;;;;;5007021;28;20036;-71
2021/08/28 06:59:04;;;;;;;15.15;8.32;;;17.00;87.90;;;;;;5014687;28;20033;-73
2021/08/28 07:01:31;;;;;;;17.40;8.98;;;17.00;87.70;;;;;;5000967;28;20046;-77
2021/08/28 07:03:57;;;;;;;17.60;8.65;;;17.10;87.70;;;;;;5014840;28;20034;-71
2021/08/28 07:06:22;;;;;;;20.48;8.95;;;17.10;87.70;;;;;;5022972;28;20460;-73
2021/08/28 07:08:48;;;;;;;16.20;8.57;;;17.20;87.40;;;;;;5024254;28;20025;-74
2021/08/28 07:11:14;;;;;;;18.17;9.10;;;17.30;87.50;;;;;;5016701;28;20033;-74
2021/08/28 07:13:39;;;;;;;18.45;9.15;;;17.40;87.30;;;;;;5022055;28;20029;-71
2021/08/28 07:16:05;;;;;;;21.95;9.90;;;17.40;87.10;;;;;;5018209;28;20033;-72
2021/08/28 07:18:31;;;;;;;17.25;8.27;;;17.70;87.30;;;;;;5019332;28;20029;-72
2021/08/28 07:20:57;;;;;;;18.83;8.52;;;18.10;86.20;;;;;;5015620;28;20481;-73
2021/08/28 07:23:22;;;;;;;15.73;8.55;;;18.50;85.30;;;;;;5025881;28;20048;-72
2021/08/28 07:25:48;;;;;;;18.30;7.10;;;18.70;84.20;;;;;;5027608;28;20091;-72
2021/08/28 07:28:14;;;;;;;15.45;6.90;;;18.80;82.70;;;;;;5020478;28;20474;-71
2021/08/28 07:30:40;;;;;;;18.00;6.90;;;18.70;82.80;;;;;;5019633;28;20511;-71
2021/08/28 07:33:06;;;;;;;13.38;5.70;;;18.60;83.20;;;;;;5019466;28;20459;-72
2021/08/28 07:35:32;;;;;;;14.55;6.38;;;18.60;82.90;;;;;;5019463;28;20510;-72
2021/08/28 07:37:59;;;;;;;13.48;5.55;;;18.60;82.90;;;;;;5021087;28;20069;-72
2021/08/28 07:40:25;;;;;;;11.13;4.70;;;18.70;82.40;;;;;;5017183;28;20045;-72
2021/08/28 07:42:55;;;;;;;13.93;4.60;;;18.60;81.80;;;;;;5018650;28;20564;-72
2021/08/28 07:45:22;;;;;;;14.73;5.25;;;18.70;81.00;;;;;;5016154;28;20060;-72
2021/08/28 07:47:47;;;;;;;11.25;4.30;;;18.90;79.70;;;;;;4993699;28;20058;-72
2021/08/28 07:50:14;;;;;;;14.25;3.97;;;19.10;79.70;;;;;;5005589;28;20069;-73
2021/08/28 07:52:41;;;;;;;16.27;4.93;;;19.40;78.40;;;;;;5001432;28;20042;-78
2021/08/28 07:55:07;;;;;;;13.20;4.47;;;19.50;78.30;;;;;;5020317;28;20034;-77
2021/08/28 07:57:33;;;;;;;10.88;3.95;;;19.60;77.50;;;;;;5024489;28;20030;-72
2021/08/28 07:59:59;;;;;;;10.15;4.20;;;19.30;78.20;;;;;;5022930;28;20036;-71
2021/08/28 08:02:24;;;;;;;15.85;4.40;;;19.20;77.80;;;;;;5024361;28;20477;-76
2021/08/28 08:04:50;;;;;;;12.45;4.55;;;19.20;78.30;;;;;;5019002;28;20053;-71
2021/08/28 08:07:16;;;;;;;14.80;4.30;;;19.20;77.70;;;;;;5018208;28;20142;-72
2021/08/28 08:09:41;;;;;;;14.32;3.92;;;19.30;78.10;;;;;;5021172;28;20024;-72
2021/08/28 08:12:07;;;;;;;11.82;3.92;;;19.40;77.60;;;;;;5011504;28;20457;-73
2021/08/28 08:14:33;;;;;;;11.35;4.25;;;19.40;78.20;;;;;;5021319;28;20037;-73
2021/08/28 08:16:59;;;;;;;10.77;4.05;;;19.50;77.80;;;;;;5033843;28;20033;-72
2021/08/28 08:19:24;;;;;;;10.85;3.90;;;19.60;77.20;;;;;;5027101;28;20040;-73
2021/08/28 08:21:50;;;;;;;11.30;3.85;;;19.50;77.40;;;;;;5020407;28;20120;-73
2021/08/28 08:24:16;;;;;;;13.23;4.53;;;19.60;78.20;;;;;;5023653;28;20096;-72
2021/08/28 08:26:42;;;;;;;11.00;3.75;;;19.60;77.60;;;;;;5021967;28;20022;-73
2021/08/28 08:29:07;;;;;;;12.90;4.03;;;19.60;77.70;;;;;;5031435;28;20170;-72
2021/08/28 08:31:33;;;;;;;13.55;4.07;;;19.60;77.00;;;;;;5032602;28;21084;-73
2021/08/28 08:33:59;;;;;;;12.73;4.40;;;19.70;77.20;;;;;;5024676;28;20034;-73
2021/08/28 08:36:24;;;;;;;13.00;3.78;;;20.00;76.80;;;;;;5028213;28;20038;-73
2021/08/28 08:38:50;;;;;;;10.32;3.40;;;20.20;75.00;;;;;;5014839;28;20030;-73
2021/08/28 08:41:17;;;;;;;10.23;3.45;;;20.40;74.00;;;;;;5014002;28;20184;-74
2021/08/28 08:43:46;;;;;;;10.05;3.60;;;20.50;73.10;;;;;;5031288;28;20503;-73
2021/08/28 08:46:12;;;;;;;8.68;3.97;;;20.50;73.20;;;;;;5018879;28;20123;-72
2021/08/28 08:48:40;;;;;;;9.18;3.40;;;20.50;72.40;;;;;;5042074;28;20155;-73
2021/08/28 08:51:07;;;;;;;10.95;3.63;;;20.40;73.00;;;;;;5018109;28;20116;-72
2021/08/28 08:53:33;;;;;;;11.32;3.85;;;20.50;73.10;;;;;;5029474;28;20046;-73
2021/08/28 08:55:59;;;;;;;10.82;3.80;;;20.40;72.70;;;;;;5001218;28;20026;-72
2021/08/28 08:58:25;;;;;;;11.75;4.20;;;20.30;72.70;;;;;;5011102;28;20065;-72
2021/08/28 09:00:51;;;;;;;12.35;4.13;;;20.20;73.00;;;;;;5022564;28;20389;-72
2021/08/28 09:03:17;;;;;;;8.88;3.35;;;20.10;73.60;;;;;;5024656;28;20109;-72
2021/08/28 09:05:42;;;;;;;8.57;3.50;;;20.10;73.00;;;;;;5027318;28;20046;-73
2021/08/28 09:08:08;;;;;;;10.85;3.55;;;19.70;74.30;;;;;;5024261;28;20041;-73
2021/08/28 09:10:34;;;;;;;10.25;3.78;;;19.50;76.00;;;;;;5031252;28;20034;-72
2021/08/28 09:13:18;;;;;;;9.18;3.83;;;19.20;76.60;;;;;;5024093;28;20128;-72
2021/08/28 09:15:55;;;;;;;10.40;3.90;;;19.10;78.30;;;;;;5012778;28;20121;-72
2021/08/28 09:18:22;;;;;;;11.25;4.05;;;18.90;79.60;;;;;;5019417;28;20038;-71
2021/08/28 09:20:48;;;;;;;10.00;4.38;;;18.80;80.40;;;;;;5012710;28;20088;-72
2021/08/28 09:23:18;;;;;;;13.65;5.10;;;18.60;80.50;;;;;;5023758;28;20093;-74
2021/08/28 09:25:52;;;;;;;11.35;5.15;;;18.60;80.70;;;;;;5030111;28;20033;-72
2021/08/28 09:28:32;;;;;;;10.23;4.55;;;18.60;80.90;;;;;;5015715;28;20036;-71
2021/08/28 09:31:01;;;;;;;11.25;4.22;;;18.70;81.00;;;;;;5001105;28;20033;-71
2021/08/28 09:33:34;;;;;;;10.43;4.25;;;18.90;80.40;;;;;;5007919;28;20034;-71
2021/08/28 09:36:00;;;;;;;10.30;4.20;;;19.20;80.40;;;;;;5001655;28;20038;-71
2021/08/28 09:38:26;;;;;;;11.30;5.40;;;19.40;78.90;;;;;;5002379;28;20073;-76
2021/08/28 09:40:57;;;;;;;13.00;5.38;;;19.60;78.10;;;;;;5028918;28;20068;-72
2021/08/28 09:43:24;;;;;;;11.18;5.13;;;19.80;77.20;;;;;;5022008;28;20045;-72
2021/08/28 09:45:53;;;;;;;8.90;4.63;;;19.80;77.10;;;;;;5028887;28;21142;-71
2021/08/28 09:48:28;;;;;;;11.98;5.47;;;19.60;77.30;;;;;;5011349;28;20446;-75
2021/08/28 09:50:54;;;;;;;11.25;5.75;;;19.50;77.80;;;;;;5019206;28;20044;-74
2021/08/28 09:53:26;;;;;;;12.38;5.38;;;19.30;78.40;;;;;;5023312;28;20042;-76
2021/08/28 09:55:56;;;;;;;10.23;4.72;;;19.10;78.70;;;;;;5021674;28;20033;-71
2021/08/28 09:58:27;;;;;;;10.30;4.40;;;18.70;79.90;;;;;;5025844;28;20084;-72
2021/08/28 10:00:58;;;;;;;13.73;4.95;;;18.60;81.00;;;;;;5022519;28;20034;-71
2021/08/28 10:03:28;;;;;;;10.95;4.63;;;18.30;82.30;;;;;;5017815;28;20045;-71
2021/08/28 10:05:55;;;;;;;9.57;4.93;;;18.10;83.10;;;;;;5017106;28;20034;-71
2021/08/28 10:08:21;;;;;;;10.32;4.78;;;18.00;83.80;;;;;;5021982;28;20088;-72
2021/08/28 10:10:49;;;;;;;11.15;5.13;;;18.00;84.40;;;;;;5020735;28;20058;-75
2021/08/28 10:13:17;;;;;;;12.65;5.82;;;18.10;84.50;;;;;;5023599;28;20040;-71
2021/08/28 10:15:43;;;;;;;13.32;5.72;;;18.10;84.40;;;;;;5017328;28;20022;-72
2021/08/28 10:18:10;;;;;;;14.13;5.90;;;18.10;84.60;;;;;;5015982;28;20070;-73
2021/08/28 10:20:36;;;;;;;12.00;5.13;;;18.30;84.30;;;;;;5027087;28;20090;-72
2021/08/28 10:23:04;;;;;;;12.65;5.47;;;18.30;84.40;;;;;;5031202;28;20046;-73
2021/08/28 10:25:35;;;;;;;12.45;5.25;;;18.30;84.20;;;;;;5010404;28;20025;-72
2021/08/28 10:28:01;;;;;;;10.38;5.15;;;18.40;83.30;;;;;;5029297;28;20546;-72
2021/08/28 10:30:28;;;;;;;10.70;5.25;;;18.60;83.60;;;;;;5003009;28;20040;-74
2021/08/28 10:32:54;;;;;;;12.77;5.65;;;18.60;82.90;;;;;;5026211;28;20115;-76
2021/08/28 10:35:22;;;;;;;12.70;5.57;;;18.70;82.80;;;;;;5013353;28;20163;-72
2021/08/28 10:37:49;;;;;;;11.00;5.00;;;19.00;83.40;;;;;;5026323;28;20033;-75
2021/08/28 10:40:20;;;;;;;11.98;5.60;;;19.40;81.60;;;;;;5025543;28;20145;-72
2021/08/28 10:42:46;;;;;;;11.80;6.03;;;19.90;79.70;;;;;;5020699;28;20029;-71
2021/08/28 10:45:12;;;;;;;10.93;5.57;;;20.30;79.40;;;;;;5006560;28;20034;-73
2021/08/28 10:47:38;;;;;;;12.35;4.90;;;20.60;77.30;;;;;;5014249;28;20040;-72
2021/08/28 10:50:10;;;;;;;13.23;4.72;;;20.80;75.30;;;;;;5028483;28;20029;-73
2021/08/28 10:52:38;;;;;;;11.57;4.55;;;20.90;74.80;;;;;;5014639;28;20043;-72
2021/08/28 10:55:11;;;;;;;13.48;4.85;;;20.80;75.10;;;;;;5008250;28;20565;-75
2021/08/28 10:57:38;;;;;;;12.50;4.18;;;20.60;74.60;;;;;;5020018;28;20770;-74
2021/08/28 11:00:08;;;;;;;12.35;4.82;;;20.40;74.40;;;;;;5018021;28;20417;-74
2021/08/28 11:02:53;;;;;;;12.55;4.88;;;20.30;74.20;;;;;;5015244;28;20049;-72
2021/08/28 11:05:29;;;;;;;14.20;5.65;;;20.30;74.50;;;;;;5013682;28;20393;-75
2021/08/28 11:07:57;;;;;;;16.08;4.88;;;20.30;74.80;;;;;;5031327;28;20034;-72
2021/08/28 11:10:27;;;;;;;13.35;4.82;;;20.60;75.40;;;;;;5021175;28;20025;-72
2021/08/28 11:13:05;;;;;;;13.13;4.65;;;20.60;73.40;;;;;;5030058;28;20045;-72
2021/08/28 11:15:34;;;;;;;11.23;4.30;;;20.40;72.90;;;;;;5012631;28;20116;-72
2021/08/28 11:18:20;;;;;;;13.30;4.85;;;20.00;76.00;;;;;;5024787;28;20392;-77
2021/08/28 11:20:50;;;;;;;15.07;4.88;;;19.70;76.20;;;;;;5023701;28;20610;-73
2021/08/28 11:23:18;;;;;;;12.00;5.28;;;19.60;76.90;;;;;;5021727;28;20057;-72
2021/08/28 11:25:49;;;;;;;10.80;5.07;;;19.60;77.90;;;;;;5026394;28;20127;-71
2021/08/28 11:28:15;;;;;;;12.57;5.10;;;19.80;77.80;;;;;;5014635;28;20057;-72
2021/08/28 11:30:41;;;;;;;12.02;5.07;;;20.10;77.20;;;;;;5022077;28;20033;-72
2021/08/28 11:33:19;;;;;;;11.68;4.53;;;20.20;73.80;;;;;;5016512;28;20606;-71
2021/08/28 11:35:53;;;;;;;8.25;4.30;;;20.50;74.00;;;;;;5026764;28;20033;-75
2021/08/28 11:38:25;;;;;;;9.90;4.68;;;20.60;72.30;;;;;;5018742;28;20033;-71
2021/08/28 11:41:04;;;;;;;11.63;4.25;;;20.40;71.30;;;;;;5018284;28;20488;-72
2021/08/28 11:43:34;;;;;;;10.45;4.03;;;20.70;68.80;;;;;;5001402;28;20063;-73
2021/08/28 11:46:14;;;;;;;9.80;4.15;;;20.70;67.90;;;;;;5004956;28;20037;-72
2021/08/28 11:48:43;;;;;;;7.13;3.35;;;20.70;68.70;;;;;;5001654;28;20042;-73
2021/08/28 11:51:21;;;;;;;10.75;3.40;;;20.70;67.30;;;;;;5003905;28;20037;-77
2021/08/28 11:53:51;;;;;;;8.10;3.05;;;20.80;66.60;;;;;;5030115;28;20044;-75
2021/08/28 11:56:20;;;;;;;9.75;3.78;;;21.00;65.90;;;;;;5025490;28;20537;-73
2021/08/28 11:58:56;;;;;;;7.45;3.35;;;21.30;65.80;;;;;;5029256;28;20029;-72
2021/08/28 12:01:36;;;;;;;11.75;3.70;;;21.10;66.10;;;;;;5021234;28;20069;-74
2021/08/28 12:04:05;;;;;;;9.48;3.35;;;21.10;65.00;;;;;;5012746;28;20045;-72
2021/08/28 12:06:32;;;;;;;9.13;3.50;;;21.20;64.80;;;;;;5019453;28;20038;-70
2021/08/28 12:08:58;;;;;;;7.28;3.33;;;21.30;65.40;;;;;;5024826;28;20048;-74
2021/08/28 12:11:24;;;;;;;7.68;3.10;;;21.40;66.70;;;;;;5014301;28;20044;-73
2021/08/28 12:13:56;;;;;;;8.15;3.42;;;21.70;64.60;;;;;;5036884;28;20125;-71
2021/08/28 12:16:31;;;;;;;9.00;3.58;;;21.30;63.50;;;;;;5018335;28;20496;-72
2021/08/28 12:19:03;;;;;;;9.98;3.88;;;21.10;64.60;;;;;;5032299;28;20208;-72
2021/08/28 12:21:31;;;;;;;9.48;4.47;;;21.10;66.60;;;;;;5014540;28;20052;-71
2021/08/28 12:24:23;;;;;;;9.82;5.18;;;21.20;65.70;;;;;;5006960;28;20485;-72
2021/08/28 12:27:10;;;;;;;11.02;4.20;;;20.90;66.00;;;;;;5001222;28;20457;-76
2021/08/28 12:29:39;;;;;;;10.35;4.47;;;21.10;66.80;;;;;;5009934;28;20120;-72
2021/08/28 12:32:10;;;;;;;8.02;3.70;;;21.50;66.20;;;;;;5021243;28;20611;-71
2021/08/28 12:34:38;;;;;;;10.57;4.30;;;21.50;64.50;;;;;;5026529;28;20039;-72
2021/08/28 12:37:14;;;;;;;9.55;3.72;;;21.40;64.90;;;;;;5022742;28;20034;-71
2021/08/28 12:39:47;;;;;;;9.43;3.53;;;21.10;64.80;;;;;;5029704;28;20077;-72
2021/08/28 12:42:16;;;;;;;11.35;4.47;;;21.10;65.00;;;;;;5024825;28;20060;-74